Weather at Voghera-Rivanazzano Airport

Public forecast

Using degrees Celsius for public forecast. Weather courtesy of forecast.io.

Closest aviation weather report (METAR) to Voghera-Rivanazzano Airport

Closest report is Piacenza San Damiano Air Base, 30.1 nm (55.8 km) E. Retrieved 2021/04/13 14:55 UTC (1 hour ago):

LIMS 131455Z 17004KT 110V210 9999 FEW040 SCT080 11/06 Q1019

Closest aviation forecast (TAF) to Voghera-Rivanazzano Airport

Forecast is more than 12 hours old.

Closest forecast is Piacenza San Damiano Air Base, 30.1 nm (55.8 km) E. Retrieved 2015/10/16 09:21 UTC (5 years ago):

TAF TAF LIMS 160800Z 1609/1621 VRB05KT 9999 SCT030 BECMG 1613/1615 35007KT SCT030 BKN060